createdAt,value
2022-12-08T00:02:06.311Z,99717.94
2022-12-08T00:05:27.706Z,99703.25
2022-12-08T00:08:47.890Z,99695.84
2022-12-08T00:11:54.610Z,99709.97
2022-12-08T00:14:58.748Z,99699.22
2022-12-08T00:18:01.719Z,99719.38
2022-12-08T00:21:04.823Z,99707.22
2022-12-08T00:24:07.866Z,99704.66
2022-12-08T00:27:11.746Z,99713.94
2022-12-08T00:30:15.932Z,99705.25
2022-12-08T00:33:18.682Z,99711.97
2022-12-08T00:36:21.512Z,99702.22
2022-12-08T00:39:24.318Z,99704.88
2022-12-08T00:42:27.082Z,99717.56
2022-12-08T00:45:31.341Z,99699.78
2022-12-08T00:48:34.233Z,99703.28
2022-12-08T00:51:37.273Z,99690.59
2022-12-08T00:54:40.091Z,99697.00
2022-12-08T00:57:42.860Z,99689.16
2022-12-08T01:00:47.099Z,99688.06
2022-12-08T01:03:50.029Z,99684.69
2022-12-08T01:06:53.112Z,99677.53
2022-12-08T01:09:55.887Z,99684.44
2022-12-08T01:13:00.493Z,99679.38
2022-12-08T01:16:05.089Z,99677.53
2022-12-08T01:19:08.128Z,99681.88
2022-12-08T01:22:10.913Z,99682.50
2022-12-08T01:25:13.650Z,99678.63
2022-12-08T01:28:16.473Z,99678.63
2022-12-08T01:31:21.417Z,99670.25
2022-12-08T01:34:24.308Z,99666.63
2022-12-08T01:37:27.040Z,99686.44
2022-12-08T01:40:29.753Z,99697.44
2022-12-08T01:43:50.376Z,99699.00
2022-12-08T01:46:55.034Z,99694.66
2022-12-08T01:49:57.838Z,99676.66
2022-12-08T01:53:02.802Z,99674.38
2022-12-08T01:56:08.107Z,99694.25
2022-12-08T01:59:10.960Z,99714.91
2022-12-08T02:02:15.324Z,99708.16
2022-12-08T02:05:19.040Z,99705.50
2022-12-08T02:08:21.942Z,99705.13
2022-12-08T02:11:24.867Z,99709.03
2022-12-08T02:14:27.702Z,99704.00
2022-12-08T02:17:39.934Z,99703.75
2022-12-08T02:20:48.390Z,99718.38
2022-12-08T02:23:55.374Z,99718.38
2022-12-08T02:27:12.985Z,99718.13
2022-12-08T02:30:21.188Z,99717.03
2022-12-08T02:33:47.931Z,99714.94
2022-12-08T02:36:58.510Z,99719.28
2022-12-08T02:40:05.039Z,99722.78
2022-12-08T02:43:10.566Z,99706.00
2022-12-08T02:46:15.433Z,99713.97
2022-12-08T02:49:19.519Z,99699.00
2022-12-08T02:52:42.453Z,99698.63
2022-12-08T02:55:49.783Z,99694.84
2022-12-08T02:59:12.110Z,99694.84
2022-12-08T03:02:25.257Z,99693.16
2022-12-08T03:05:33.961Z,99684.19
2022-12-08T03:08:40.574Z,99683.94
2022-12-08T03:11:47.188Z,99676.06
2022-12-08T03:14:53.784Z,99691.78
2022-12-08T03:17:58.406Z,99689.28
2022-12-08T03:21:02.753Z,99684.50
2022-12-08T03:24:07.385Z,99696.13
2022-12-08T03:27:12.242Z,99692.34
2022-12-08T03:30:15.037Z,99695.84
2022-12-08T03:33:21.443Z,99704.69
2022-12-08T03:36:26.519Z,99686.78
2022-12-08T03:39:29.330Z,99690.84
2022-12-08T03:42:32.064Z,99680.34
2022-12-08T03:45:34.904Z,99684.97
2022-12-08T03:48:37.633Z,99675.31
2022-12-08T03:51:41.917Z,99677.56
2022-12-08T03:54:44.684Z,99675.16
2022-12-08T03:57:47.449Z,99675.88
2022-12-08T04:00:50.228Z,99683.00
2022-12-08T04:03:53.288Z,99691.84
2022-12-08T04:06:57.471Z,99688.94
2022-12-08T04:10:00.266Z,99692.53
2022-12-08T04:13:03.021Z,99696.63
2022-12-08T04:16:06.185Z,99704.47
2022-12-08T04:19:09.008Z,99709.94
2022-12-08T04:22:13.138Z,99703.63
2022-12-08T04:25:15.935Z,99703.63
2022-12-08T04:28:18.690Z,99703.50
2022-12-08T04:31:21.529Z,99705.31
2022-12-08T04:34:24.391Z,99702.56
2022-12-08T04:37:29.096Z,99718.38
2022-12-08T04:40:32.015Z,99721.03
2022-12-08T04:43:34.757Z,99714.16
2022-12-08T04:46:42.968Z,99699.88
2022-12-08T04:49:46.278Z,99687.66
2022-12-08T04:52:50.407Z,99695.94
2022-12-08T04:55:53.293Z,99710.41
2022-12-08T04:58:56.086Z,99712.78
2022-12-08T05:01:58.958Z,99711.94
2022-12-08T05:05:01.864Z,99712.63
2022-12-08T05:08:06.478Z,99703.13
2022-12-08T05:11:11.049Z,99707.31
2022-12-08T05:14:15.457Z,99698.50
2022-12-08T05:17:18.637Z,99720.09
2022-12-08T05:20:21.431Z,99738.88
2022-12-08T05:23:25.584Z,99741.41
2022-12-08T05:26:28.358Z,99737.19
2022-12-08T05:29:31.129Z,99737.19
2022-12-08T05:32:33.878Z,99749.25
2022-12-08T05:35:36.689Z,99740.69
2022-12-08T05:38:40.880Z,99738.50
2022-12-08T05:41:43.662Z,99744.50
2022-12-08T05:44:46.478Z,99740.31
2022-12-08T05:47:50.257Z,99743.91
2022-12-08T05:50:53.408Z,99749.84
2022-12-08T05:53:57.951Z,99750.69
2022-12-08T05:57:00.942Z,99749.00
2022-12-08T06:00:04.285Z,99753.34
2022-12-08T06:03:07.318Z,99756.59
2022-12-08T06:06:10.190Z,99753.19
2022-12-08T06:09:14.361Z,99750.69
2022-12-08T06:12:17.100Z,99759.38
2022-12-08T06:15:19.901Z,99754.88
2022-12-08T06:18:22.666Z,99754.63
2022-12-08T06:21:25.474Z,99761.09
2022-12-08T06:24:29.654Z,99762.75
2022-12-08T06:27:32.429Z,99765.44
2022-12-08T06:30:35.630Z,99763.47
2022-12-08T06:33:38.618Z,99768.94
2022-12-08T06:36:41.433Z,99766.97
2022-12-08T06:39:45.581Z,99771.31
2022-12-08T06:42:48.340Z,99769.50
2022-12-08T06:45:51.351Z,99773.59
2022-12-08T06:48:54.130Z,99778.06
2022-12-08T06:51:56.887Z,99780.88
2022-12-08T06:55:01.059Z,99768.09
2022-12-08T06:58:03.811Z,99778.47
2022-12-08T07:01:07.233Z,99771.78
2022-12-08T07:04:10.113Z,99781.31
2022-12-08T07:07:12.883Z,99782.56
2022-12-08T07:10:17.188Z,99786.75
2022-12-08T07:13:19.966Z,99805.59
2022-12-08T07:16:22.806Z,99803.09
2022-12-08T07:19:25.690Z,99803.28
2022-12-08T07:22:28.451Z,99806.06
2022-12-08T07:25:32.642Z,99818.25
2022-12-08T07:28:36.312Z,99819.72
2022-12-08T07:31:39.181Z,99819.06
2022-12-08T07:34:41.999Z,99814.56
2022-12-08T07:37:44.700Z,99827.63
2022-12-08T07:40:48.790Z,99815.72
2022-12-08T07:43:53.635Z,99814.91
2022-12-08T07:46:56.488Z,99807.22
2022-12-08T07:49:59.251Z,99814.38
2022-12-08T07:53:02.275Z,99818.84
2022-12-08T07:56:08.518Z,99825.34
2022-12-08T07:59:11.325Z,99824.09
2022-12-08T08:02:26.002Z,99829.47
2022-12-08T08:05:29.342Z,99827.88
2022-12-08T08:08:33.002Z,99824.16
2022-12-08T08:11:37.131Z,99820.56
2022-12-08T08:14:39.970Z,99816.47
2022-12-08T08:17:42.751Z,99811.50
2022-12-08T08:20:45.476Z,99814.53
2022-12-08T08:23:49.311Z,99813.56
2022-12-08T08:26:55.346Z,99812.34
2022-12-08T08:29:58.571Z,99798.31
2022-12-08T08:33:01.643Z,99798.47
2022-12-08T08:36:07.539Z,99802.84
2022-12-08T08:39:10.278Z,99794.63
2022-12-08T08:42:14.478Z,99802.00
2022-12-08T08:45:17.266Z,99797.16
2022-12-08T08:48:20.083Z,99791.22
2022-12-08T08:51:22.838Z,99795.44
2022-12-08T08:54:25.672Z,99789.38
2022-12-08T08:57:29.789Z,99787.00
2022-12-08T09:00:32.566Z,99779.03
2022-12-08T09:03:35.342Z,99781.88
2022-12-08T09:06:38.264Z,99781.09
2022-12-08T14:31:14.871Z,99784.47
2022-12-08T14:34:17.871Z,99788.63
2022-12-08T14:37:21.036Z,99784.56
2022-12-08T14:40:25.961Z,99787.28
2022-12-08T14:43:29.277Z,99795.78
2022-12-08T14:46:33.933Z,99793.66
2022-12-08T14:49:37.692Z,99794.38
2022-12-08T14:52:43.479Z,99802.25
2022-12-08T14:55:47.734Z,99805.63
2022-12-08T14:58:52.682Z,99806.00
2022-12-08T15:02:11.406Z,99800.00
2022-12-08T15:05:17.147Z,99807.34
2022-12-08T15:08:20.421Z,99804.81
2022-12-08T15:11:31.027Z,99796.38
2022-12-08T15:14:35.566Z,99805.06
2022-12-08T15:17:43.656Z,99796.63
2022-12-08T15:20:47.884Z,99798.56
2022-12-08T15:23:52.148Z,99808.44
2022-12-08T15:26:55.008Z,99802.44
2022-12-08T15:29:57.825Z,99803.63
2022-12-08T15:33:01.951Z,99808.47
2022-12-08T15:36:04.857Z,99800.97
2022-12-08T15:39:12.402Z,99808.22
2022-12-08T15:42:15.218Z,99804.59
2022-12-08T15:45:18.625Z,99811.13
2022-12-08T15:48:23.803Z,99815.19
2022-12-08T15:51:26.547Z,99811.56
2022-12-08T15:54:29.338Z,99800.44
2022-12-08T15:58:30.843Z,99799.75
2022-12-08T16:00:56.801Z,99794.00
2022-12-08T16:07:25.806Z,99797.56
2022-12-08T16:10:45.441Z,99788.72
2022-12-08T16:14:00.240Z,99780.56
2022-12-08T16:17:16.878Z,99768.28
2022-12-08T16:20:28.179Z,99758.03
2022-12-08T16:23:43.629Z,99765.50
2022-12-08T16:30:14.521Z,99764.00
2022-12-08T16:33:17.359Z,99762.84
2022-12-08T16:36:21.485Z,99779.47
2022-12-08T16:39:26.864Z,99787.38
2022-12-08T16:42:44.192Z,99779.25
2022-12-08T16:45:47.067Z,99770.69
2022-12-08T16:48:49.953Z,99779.91
2022-12-08T16:51:54.064Z,99776.28
2022-12-08T16:54:56.842Z,99776.31
2022-12-08T16:57:59.611Z,99772.63
2022-12-08T17:01:02.424Z,99776.94
2022-12-08T17:04:35.576Z,99771.41
2022-12-08T17:07:29.875Z,99763.47
2022-12-08T17:10:34.474Z,99773.13
2022-12-08T17:13:37.736Z,99771.34
2022-12-08T17:16:40.578Z,99779.41
2022-12-08T17:19:43.413Z,99771.28
2022-12-08T17:22:47.695Z,99771.69
2022-12-08T17:25:58.254Z,99782.44
2022-12-08T17:29:02.427Z,99774.75
2022-12-08T17:32:05.550Z,99772.94
2022-12-08T17:35:08.686Z,99765.63
2022-12-08T17:38:13.034Z,99765.28
2022-12-08T17:41:15.791Z,99765.88
2022-12-08T17:44:19.421Z,99770.84
2022-12-08T17:47:22.182Z,99760.72
2022-12-08T17:50:24.924Z,99753.19
2022-12-08T17:53:32.909Z,99753.66
2022-12-08T17:56:39.937Z,99757.16
2022-12-08T17:59:42.730Z,99762.31
2022-12-08T18:02:45.563Z,99753.03
2022-12-08T18:05:49.349Z,99747.47
2022-12-08T18:08:53.568Z,99742.97
2022-12-08T18:11:56.332Z,99747.56
2022-12-08T18:14:59.134Z,99737.59
2022-12-08T18:18:01.960Z,99740.53
2022-12-08T18:21:04.915Z,99742.63
2022-12-08T18:24:09.806Z,99744.56
2022-12-08T18:27:12.749Z,99735.72
2022-12-08T18:30:16.904Z,99738.50
2022-12-08T18:33:19.657Z,99737.66
2022-12-08T18:36:24.791Z,99732.84
2022-12-08T18:39:29.821Z,99732.03
2022-12-08T18:42:32.619Z,99740.13
2022-12-08T18:45:36.959Z,99736.91
2022-12-08T18:48:40.847Z,99733.84
2022-12-08T18:51:43.819Z,99731.44
2022-12-08T18:55:05.921Z,99732.47
2022-12-08T18:58:11.125Z,99735.84
2022-12-08T19:01:14.594Z,99733.41
2022-12-08T19:04:38.452Z,99729.63
2022-12-08T19:07:42.590Z,99733.13
2022-12-08T19:10:46.989Z,99732.72
2022-12-08T19:13:49.746Z,99730.34
2022-12-08T19:16:52.989Z,99734.00
2022-12-08T19:19:55.717Z,99732.44
2022-12-08T19:22:58.494Z,99735.69
2022-12-08T19:26:02.826Z,99727.41
2022-12-08T19:29:05.830Z,99733.44
2022-12-08T19:32:08.787Z,99732.19
2022-12-08T19:35:12.644Z,99732.03
2022-12-08T19:38:16.357Z,99722.38
2022-12-08T19:41:37.910Z,99725.19
2022-12-08T19:44:56.044Z,99710.72
2022-12-08T19:47:58.812Z,99725.31
2022-12-08T19:51:01.546Z,99714.78
2022-12-08T19:54:04.823Z,99718.16
2022-12-08T19:57:08.902Z,99709.44
2022-12-08T20:00:12.821Z,99720.06
2022-12-08T20:03:16.417Z,99717.28
2022-12-08T20:06:19.507Z,99712.72
2022-12-08T20:09:22.659Z,99714.84
2022-12-08T20:12:26.829Z,99710.81
2022-12-08T20:15:29.604Z,99707.59
2022-12-08T20:18:32.400Z,99701.44
2022-12-08T20:21:35.174Z,99708.88
2022-12-08T20:24:38.028Z,99698.22
2022-12-08T20:27:43.147Z,99706.53
2022-12-08T20:30:49.092Z,99696.41
2022-12-08T20:33:52.312Z,99703.84
2022-12-08T20:36:55.240Z,99691.13
2022-12-08T20:39:58.074Z,99684.34
2022-12-08T20:43:02.430Z,99684.66
2022-12-08T20:46:07.001Z,99683.38
2022-12-08T20:49:09.910Z,99682.69
2022-12-08T20:52:12.694Z,99686.34
2022-12-08T20:55:15.485Z,99687.59
2022-12-08T20:58:19.639Z,99692.94
2022-12-08T21:01:23.466Z,99686.22
2022-12-08T21:04:26.414Z,99680.56
2022-12-08T21:07:29.613Z,99678.34
2022-12-08T21:10:32.529Z,99679.47
2022-12-08T21:13:37.609Z,99675.81
2022-12-08T21:16:40.796Z,99668.38
2022-12-08T21:19:43.914Z,99669.50
2022-12-08T21:22:46.765Z,99666.84
2022-12-08T21:25:49.679Z,99662.91
2022-12-08T21:28:54.832Z,99669.06
2022-12-08T21:31:58.775Z,99655.63
2022-12-08T21:35:01.945Z,99653.81
2022-12-08T21:38:05.825Z,99659.41
2022-12-08T21:41:09.762Z,99648.03
2022-12-08T21:44:15.246Z,99654.78
2022-12-08T21:47:18.183Z,99650.28
2022-12-08T21:50:21.236Z,99662.63
2022-12-08T21:53:25.436Z,99664.88
2022-12-08T21:56:28.272Z,99655.31
2022-12-08T21:59:33.145Z,99651.13
2022-12-08T22:02:36.009Z,99650.44
2022-12-08T22:05:39.160Z,99639.47
2022-12-08T22:08:42.575Z,99648.03
2022-12-08T22:11:45.923Z,99638.06
2022-12-08T22:14:51.058Z,99639.59
2022-12-08T22:17:54.287Z,99644.38
2022-12-08T22:20:58.175Z,99632.31
2022-12-08T22:24:01.867Z,99635.09
2022-12-08T22:27:04.893Z,99634.81
2022-12-08T22:30:13.405Z,99633.97
2022-12-08T22:33:16.379Z,99627.25
2022-12-08T22:36:20.279Z,99617.97
2022-12-08T22:39:23.435Z,99616.03
2022-12-08T22:42:26.729Z,99615.88
2022-12-08T22:45:30.963Z,99619.38
2022-12-08T22:48:34.087Z,99616.44
2022-12-08T22:51:37.380Z,99616.84
2022-12-08T22:54:40.475Z,99603.09
2022-12-08T22:57:43.362Z,99607.47
2022-12-08T23:00:47.871Z,99609.16
2022-12-08T23:03:50.993Z,99611.25
2022-12-08T23:06:54.027Z,99603.22
2022-12-08T23:09:56.930Z,99611.38
2022-12-08T23:13:06.864Z,99613.06
2022-12-08T23:16:11.885Z,99624.72
2022-12-08T23:19:14.672Z,99622.19
2022-12-08T23:22:17.658Z,99624.72
2022-12-08T23:25:20.464Z,99615.88
2022-12-08T23:28:23.233Z,99607.56
2022-12-08T23:31:27.750Z,99616.00
2022-12-08T23:34:30.767Z,99609.25
2022-12-08T23:37:33.591Z,99612.66
2022-12-08T23:40:36.559Z,99609.09
2022-12-08T23:43:39.704Z,99606.44
2022-12-08T23:46:43.952Z,99603.34
2022-12-08T23:49:47.051Z,99594.81
2022-12-08T23:52:49.976Z,99590.44
2022-12-08T23:55:58.886Z,99595.38
2022-12-08T23:59:01.745Z,99591.31
